sensor_id;sensor_type;location;lat;lon;timestamp;temperature;humidity
35240;DHT22;21376;50.954;4.716;2023-03-02T00:01:50;-1.20;99.90
35240;DHT22;21376;50.954;4.716;2023-03-02T00:04:40;-1.10;99.90
35240;DHT22;21376;50.954;4.716;2023-03-02T00:07:15;-1.40;99.90
35240;DHT22;21376;50.954;4.716;2023-03-02T00:09:45;-1.30;99.90
35240;DHT22;21376;50.954;4.716;2023-03-02T00:12:15;-1.00;99.90
35240;DHT22;21376;50.954;4.716;2023-03-02T00:14:43;-1.00;99.90
35240;DHT22;21376;50.954;4.716;2023-03-02T00:17:19;-0.90;99.90
35240;DHT22;21376;50.954;4.716;2023-03-02T00:19:55;-1.10;99.90
35240;DHT22;21376;50.954;4.716;2023-03-02T00:22:43;-1.00;99.90
35240;DHT22;21376;50.954;4.716;2023-03-02T00:25:12;-0.80;99.90
35240;DHT22;21376;50.954;4.716;2023-03-02T00:27:38;-1.20;99.90
35240;DHT22;21376;50.954;4.716;2023-03-02T00:30:09;-1.20;99.90
35240;DHT22;21376;50.954;4.716;2023-03-02T00:32:37;-1.20;99.90
35240;DHT22;21376;50.954;4.716;2023-03-02T00:35:04;-1.20;99.90
35240;DHT22;21376;50.954;4.716;2023-03-02T00:37:30;-1.30;99.90
35240;DHT22;21376;50.954;4.716;2023-03-02T00:39:56;-1.60;99.90
35240;DHT22;21376;50.954;4.716;2023-03-02T00:42:23;-1.50;99.90
35240;DHT22;21376;50.954;4.716;2023-03-02T00:44:51;-1.70;99.90
35240;DHT22;21376;50.954;4.716;2023-03-02T00:47:25;-1.70;99.90
35240;DHT22;21376;50.954;4.716;2023-03-02T00:49:55;-1.70;99.90
35240;DHT22;21376;50.954;4.716;2023-03-02T00:52:21;-1.50;99.90
35240;DHT22;21376;50.954;4.716;2023-03-02T00:54:50;-1.60;99.90
35240;DHT22;21376;50.954;4.716;2023-03-02T00:57:25;-1.60;99.90
35240;DHT22;21376;50.954;4.716;2023-03-02T00:59:54;-1.80;99.90
35240;DHT22;21376;50.954;4.716;2023-03-02T01:02:26;-1.80;99.90
35240;DHT22;21376;50.954;4.716;2023-03-02T01:04:53;-1.70;99.90
35240;DHT22;21376;50.954;4.716;2023-03-02T01:07:21;-1.60;99.90
35240;DHT22;21376;50.954;4.716;2023-03-02T01:09:50;-1.70;99.90
35240;DHT22;21376;50.954;4.716;2023-03-02T01:12:16;-1.60;99.90
35240;DHT22;21376;50.954;4.716;2023-03-02T01:14:45;-1.20;99.90
35240;DHT22;21376;50.954;4.716;2023-03-02T01:17:14;-1.50;99.90
35240;DHT22;21376;50.954;4.716;2023-03-02T01:19:43;-1.30;99.90
35240;DHT22;21376;50.954;4.716;2023-03-02T01:22:11;-1.40;99.90
35240;DHT22;21376;50.954;4.716;2023-03-02T01:24:37;-1.60;99.90
35240;DHT22;21376;50.954;4.716;2023-03-02T01:27:05;-1.70;99.90
35240;DHT22;21376;50.954;4.716;2023-03-02T01:29:34;-1.90;99.90
35240;DHT22;21376;50.954;4.716;2023-03-02T01:32:03;-1.90;99.90
35240;DHT22;21376;50.954;4.716;2023-03-02T01:34:30;-1.90;99.90
35240;DHT22;21376;50.954;4.716;2023-03-02T01:36:56;-1.70;99.90
35240;DHT22;21376;50.954;4.716;2023-03-02T01:39:22;-1.80;99.90
35240;DHT22;21376;50.954;4.716;2023-03-02T01:41:51;-1.90;99.90
35240;DHT22;21376;50.954;4.716;2023-03-02T01:44:47;-1.80;99.90
35240;DHT22;21376;50.954;4.716;2023-03-02T01:47:35;-1.80;99.90
35240;DHT22;21376;50.954;4.716;2023-03-02T01:50:20;-1.80;99.90
35240;DHT22;21376;50.954;4.716;2023-03-02T01:52:47;-2.00;99.90
35240;DHT22;21376;50.954;4.716;2023-03-02T01:55:20;-1.90;99.90
35240;DHT22;21376;50.954;4.716;2023-03-02T01:57:51;-1.90;99.90
35240;DHT22;21376;50.954;4.716;2023-03-02T02:00:26;-2.10;99.90
35240;DHT22;21376;50.954;4.716;2023-03-02T02:02:58;-2.00;99.90
35240;DHT22;21376;50.954;4.716;2023-03-02T02:05:37;-2.00;99.90
35240;DHT22;21376;50.954;4.716;2023-03-02T02:08:05;-2.20;99.90
35240;DHT22;21376;50.954;4.716;2023-03-02T02:10:33;-2.10;99.90
35240;DHT22;21376;50.954;4.716;2023-03-02T02:13:02;-2.10;99.90
35240;DHT22;21376;50.954;4.716;2023-03-02T02:15:28;-1.90;99.90
35240;DHT22;21376;50.954;4.716;2023-03-02T02:17:54;-2.10;99.90
35240;DHT22;21376;50.954;4.716;2023-03-02T02:20:38;-1.90;99.90
35240;DHT22;21376;50.954;4.716;2023-03-02T02:28:41;-2.30;99.90
35240;DHT22;21376;50.954;4.716;2023-03-02T02:34:20;-2.30;99.90
35240;DHT22;21376;50.954;4.716;2023-03-02T02:36:53;-2.20;99.90
35240;DHT22;21376;50.954;4.716;2023-03-02T02:39:28;-2.10;99.90
35240;DHT22;21376;50.954;4.716;2023-03-02T02:41:59;-2.30;99.90
35240;DHT22;21376;50.954;4.716;2023-03-02T02:44:30;-2.50;99.90
35240;DHT22;21376;50.954;4.716;2023-03-02T02:47:01;-2.30;99.90
35240;DHT22;21376;50.954;4.716;2023-03-02T02:49:34;-2.40;99.90
35240;DHT22;21376;50.954;4.716;2023-03-02T02:52:03;-2.50;99.90
35240;DHT22;21376;50.954;4.716;2023-03-02T02:54:33;-2.50;99.90
35240;DHT22;21376;50.954;4.716;2023-03-02T02:57:02;-2.50;99.90
35240;DHT22;21376;50.954;4.716;2023-03-02T02:59:36;-2.40;99.90
35240;DHT22;21376;50.954;4.716;2023-03-02T03:02:28;-2.30;99.90
35240;DHT22;21376;50.954;4.716;2023-03-02T03:04:57;-2.50;99.90
35240;DHT22;21376;50.954;4.716;2023-03-02T03:07:31;-2.50;99.90
35240;DHT22;21376;50.954;4.716;2023-03-02T03:10:04;-2.40;99.90
35240;DHT22;21376;50.954;4.716;2023-03-02T03:12:38;-2.60;99.90
35240;DHT22;21376;50.954;4.716;2023-03-02T03:15:05;-2.70;99.90
35240;DHT22;21376;50.954;4.716;2023-03-02T03:17:34;-2.70;99.90
35240;DHT22;21376;50.954;4.716;2023-03-02T03:20:00;-2.50;99.90
35240;DHT22;21376;50.954;4.716;2023-03-02T03:22:37;-2.50;99.90
35240;DHT22;21376;50.954;4.716;2023-03-02T03:25:06;-2.60;99.90
35240;DHT22;21376;50.954;4.716;2023-03-02T03:27:33;-2.60;99.90
35240;DHT22;21376;50.954;4.716;2023-03-02T03:30:03;-2.60;99.90
35240;DHT22;21376;50.954;4.716;2023-03-02T03:32:33;-2.60;99.90
35240;DHT22;21376;50.954;4.716;2023-03-02T03:35:08;-2.80;99.90
35240;DHT22;21376;50.954;4.716;2023-03-02T03:37:38;-3.00;99.90
35240;DHT22;21376;50.954;4.716;2023-03-02T03:40:08;-2.60;99.90
35240;DHT22;21376;50.954;4.716;2023-03-02T03:42:36;-2.80;99.90
35240;DHT22;21376;50.954;4.716;2023-03-02T03:45:04;-2.70;99.90
35240;DHT22;21376;50.954;4.716;2023-03-02T03:47:35;-2.70;99.90
35240;DHT22;21376;50.954;4.716;2023-03-02T03:50:04;-2.80;99.90
35240;DHT22;21376;50.954;4.716;2023-03-02T03:52:33;-2.80;99.90
35240;DHT22;21376;50.954;4.716;2023-03-02T03:55:03;-2.90;99.90
35240;DHT22;21376;50.954;4.716;2023-03-02T03:57:35;-2.80;99.90
35240;DHT22;21376;50.954;4.716;2023-03-02T04:00:06;-2.60;99.90
35240;DHT22;21376;50.954;4.716;2023-03-02T04:02:36;-2.70;99.90
35240;DHT22;21376;50.954;4.716;2023-03-02T04:05:06;-2.80;99.90
35240;DHT22;21376;50.954;4.716;2023-03-02T04:07:33;-2.60;99.90
35240;DHT22;21376;50.954;4.716;2023-03-02T04:10:03;-2.40;99.90
35240;DHT22;21376;50.954;4.716;2023-03-02T04:12:31;-2.50;99.90
35240;DHT22;21376;50.954;4.716;2023-03-02T04:14:58;-2.60;99.90
35240;DHT22;21376;50.954;4.716;2023-03-02T04:17:27;-2.60;99.90
35240;DHT22;21376;50.954;4.716;2023-03-02T04:19:56;-2.90;99.90
35240;DHT22;21376;50.954;4.716;2023-03-02T04:22:23;-2.70;99.90
35240;DHT22;21376;50.954;4.716;2023-03-02T04:25:01;-3.00;99.90
35240;DHT22;21376;50.954;4.716;2023-03-02T04:27:26;-2.80;99.90
35240;DHT22;21376;50.954;4.716;2023-03-02T04:29:55;-3.00;99.90
35240;DHT22;21376;50.954;4.716;2023-03-02T04:32:23;-3.00;99.90
35240;DHT22;21376;50.954;4.716;2023-03-02T04:35:02;-2.90;99.90
35240;DHT22;21376;50.954;4.716;2023-03-02T04:37:34;-3.20;99.90
35240;DHT22;21376;50.954;4.716;2023-03-02T04:40:03;-3.30;99.90
35240;DHT22;21376;50.954;4.716;2023-03-02T04:42:33;-3.00;99.90
35240;DHT22;21376;50.954;4.716;2023-03-02T04:45:05;-3.10;99.90
35240;DHT22;21376;50.954;4.716;2023-03-02T04:47:37;-3.00;99.90
35240;DHT22;21376;50.954;4.716;2023-03-02T04:50:05;-3.00;99.90
35240;DHT22;21376;50.954;4.716;2023-03-02T04:52:34;-3.10;99.90
35240;DHT22;21376;50.954;4.716;2023-03-02T04:55:01;-2.70;99.90
35240;DHT22;21376;50.954;4.716;2023-03-02T04:57:27;-2.70;99.90
35240;DHT22;21376;50.954;4.716;2023-03-02T04:59:54;-2.90;99.90
35240;DHT22;21376;50.954;4.716;2023-03-02T05:02:21;-2.80;99.90
35240;DHT22;21376;50.954;4.716;2023-03-02T05:04:49;-2.90;99.90
35240;DHT22;21376;50.954;4.716;2023-03-02T05:07:15;-2.80;99.90
35240;DHT22;21376;50.954;4.716;2023-03-02T05:09:44;-3.10;99.90
35240;DHT22;21376;50.954;4.716;2023-03-02T05:12:10;-2.90;99.90
35240;DHT22;21376;50.954;4.716;2023-03-02T05:14:41;-3.00;99.90
35240;DHT22;21376;50.954;4.716;2023-03-02T05:17:11;-3.10;99.90
35240;DHT22;21376;50.954;4.716;2023-03-02T05:19:37;-3.20;99.90
35240;DHT22;21376;50.954;4.716;2023-03-02T05:22:03;-3.10;99.90
35240;DHT22;21376;50.954;4.716;2023-03-02T05:24:32;-3.00;99.90
35240;DHT22;21376;50.954;4.716;2023-03-02T05:26:58;-2.90;99.90
35240;DHT22;21376;50.954;4.716;2023-03-02T05:29:30;-2.80;99.90
35240;DHT22;21376;50.954;4.716;2023-03-02T05:31:56;-3.00;99.90
35240;DHT22;21376;50.954;4.716;2023-03-02T05:34:23;-2.90;99.90
35240;DHT22;21376;50.954;4.716;2023-03-02T05:36:50;-3.10;99.90
35240;DHT22;21376;50.954;4.716;2023-03-02T05:39:19;-2.90;99.90
35240;DHT22;21376;50.954;4.716;2023-03-02T05:41:48;-3.10;99.90
35240;DHT22;21376;50.954;4.716;2023-03-02T05:44:13;-2.90;99.90
35240;DHT22;21376;50.954;4.716;2023-03-02T05:46:41;-3.00;99.90
35240;DHT22;21376;50.954;4.716;2023-03-02T05:49:10;-3.10;99.90
35240;DHT22;21376;50.954;4.716;2023-03-02T05:51:39;-3.10;99.90
35240;DHT22;21376;50.954;4.716;2023-03-02T05:54:08;-3.20;99.90
35240;DHT22;21376;50.954;4.716;2023-03-02T05:56:34;-3.20;99.90
35240;DHT22;21376;50.954;4.716;2023-03-02T05:59:01;-2.90;99.90
35240;DHT22;21376;50.954;4.716;2023-03-02T06:03:52;-2.90;99.90
35240;DHT22;21376;50.954;4.716;2023-03-02T06:06:18;-2.90;99.90
35240;DHT22;21376;50.954;4.716;2023-03-02T06:08:47;-2.80;99.90
35240;DHT22;21376;50.954;4.716;2023-03-02T06:11:12;-2.90;99.90
35240;DHT22;21376;50.954;4.716;2023-03-02T06:13:39;-2.90;99.90
35240;DHT22;21376;50.954;4.716;2023-03-02T06:16:05;-2.80;99.90
35240;DHT22;21376;50.954;4.716;2023-03-02T06:18:32;-2.80;99.90
35240;DHT22;21376;50.954;4.716;2023-03-02T06:20:59;-2.70;99.90
35240;DHT22;21376;50.954;4.716;2023-03-02T06:23:31;-2.40;99.90
35240;DHT22;21376;50.954;4.716;2023-03-02T06:25:59;-2.60;99.90
35240;DHT22;21376;50.954;4.716;2023-03-02T06:28:39;-2.50;99.90
35240;DHT22;21376;50.954;4.716;2023-03-02T06:31:08;-2.60;99.90
35240;DHT22;21376;50.954;4.716;2023-03-02T06:33:36;-2.50;99.90
35240;DHT22;21376;50.954;4.716;2023-03-02T06:36:04;-2.50;99.90
35240;DHT22;21376;50.954;4.716;2023-03-02T06:38:30;-2.70;99.90
35240;DHT22;21376;50.954;4.716;2023-03-02T06:40:56;-2.90;99.90
35240;DHT22;21376;50.954;4.716;2023-03-02T06:43:22;-2.60;99.90
35240;DHT22;21376;50.954;4.716;2023-03-02T06:45:48;-2.40;99.90
35240;DHT22;21376;50.954;4.716;2023-03-02T06:48:16;-2.30;99.90
35240;DHT22;21376;50.954;4.716;2023-03-02T06:50:42;-2.30;99.90
35240;DHT22;21376;50.954;4.716;2023-03-02T06:53:09;-2.30;99.90
35240;DHT22;21376;50.954;4.716;2023-03-02T06:55:41;-2.10;99.90
35240;DHT22;21376;50.954;4.716;2023-03-02T06:58:07;-2.10;99.90
35240;DHT22;21376;50.954;4.716;2023-03-02T07:00:38;-2.20;99.90
35240;DHT22;21376;50.954;4.716;2023-03-02T07:03:05;-2.10;99.90
35240;DHT22;21376;50.954;4.716;2023-03-02T07:05:33;-2.10;99.90
35240;DHT22;21376;50.954;4.716;2023-03-02T07:08:01;-2.10;99.90
35240;DHT22;21376;50.954;4.716;2023-03-02T07:10:30;-2.00;99.90
35240;DHT22;21376;50.954;4.716;2023-03-02T07:12:57;-1.80;99.90
35240;DHT22;21376;50.954;4.716;2023-03-02T07:15:24;-1.80;99.90
35240;DHT22;21376;50.954;4.716;2023-03-02T07:17:51;-1.30;99.90
35240;DHT22;21376;50.954;4.716;2023-03-02T07:20:18;0.40;99.90
35240;DHT22;21376;50.954;4.716;2023-03-02T07:22:44;2.90;99.90
35240;DHT22;21376;50.954;4.716;2023-03-02T07:25:12;5.00;99.90
35240;DHT22;21376;50.954;4.716;2023-03-02T07:27:39;6.80;99.90
35240;DHT22;21376;50.954;4.716;2023-03-02T07:30:06;7.60;99.90
35240;DHT22;21376;50.954;4.716;2023-03-02T07:32:32;8.50;99.90
35240;DHT22;21376;50.954;4.716;2023-03-02T07:34:59;9.20;99.90
35240;DHT22;21376;50.954;4.716;2023-03-02T07:37:28;9.40;99.90
35240;DHT22;21376;50.954;4.716;2023-03-02T07:39:55;9.70;99.90
35240;DHT22;21376;50.954;4.716;2023-03-02T07:42:23;9.90;99.90
35240;DHT22;21376;50.954;4.716;2023-03-02T07:44:51;10.60;99.90
35240;DHT22;21376;50.954;4.716;2023-03-02T07:47:18;10.90;98.60
35240;DHT22;21376;50.954;4.716;2023-03-02T07:49:44;11.00;97.40
35240;DHT22;21376;50.954;4.716;2023-03-02T07:52:10;11.40;96.90
35240;DHT22;21376;50.954;4.716;2023-03-02T07:54:36;11.50;96.00
35240;DHT22;21376;50.954;4.716;2023-03-02T07:57:03;12.00;94.70
35240;DHT22;21376;50.954;4.716;2023-03-02T07:59:30;12.10;94.30
35240;DHT22;21376;50.954;4.716;2023-03-02T08:01:59;12.00;94.40
35240;DHT22;21376;50.954;4.716;2023-03-02T08:04:25;12.20;93.40
35240;DHT22;21376;50.954;4.716;2023-03-02T08:06:51;12.90;92.80
35240;DHT22;21376;50.954;4.716;2023-03-02T08:09:17;13.50;91.50
35240;DHT22;21376;50.954;4.716;2023-03-02T08:11:43;13.90;90.40
35240;DHT22;21376;50.954;4.716;2023-03-02T08:14:11;14.20;89.70
35240;DHT22;21376;50.954;4.716;2023-03-02T08:16:39;14.10;87.60
35240;DHT22;21376;50.954;4.716;2023-03-02T08:19:05;14.50;86.10
35240;DHT22;21376;50.954;4.716;2023-03-02T08:21:31;14.90;86.00
35240;DHT22;21376;50.954;4.716;2023-03-02T08:24:04;15.40;83.20
35240;DHT22;21376;50.954;4.716;2023-03-02T08:26:30;15.20;83.60
35240;DHT22;21376;50.954;4.716;2023-03-02T08:28:58;15.10;81.90
35240;DHT22;21376;50.954;4.716;2023-03-02T08:31:25;15.10;81.50
35240;DHT22;21376;50.954;4.716;2023-03-02T08:33:53;15.80;81.10
35240;DHT22;21376;50.954;4.716;2023-03-02T08:36:19;16.10;80.00
35240;DHT22;21376;50.954;4.716;2023-03-02T08:38:48;16.10;77.90
35240;DHT22;21376;50.954;4.716;2023-03-02T08:41:17;16.90;76.20
35240;DHT22;21376;50.954;4.716;2023-03-02T08:43:43;16.10;75.20
35240;DHT22;21376;50.954;4.716;2023-03-02T08:46:14;14.70;79.60
35240;DHT22;21376;50.954;4.716;2023-03-02T08:48:52;15.00;79.10
35240;DHT22;21376;50.954;4.716;2023-03-02T08:51:22;15.50;78.80
35240;DHT22;21376;50.954;4.716;2023-03-02T08:53:51;15.80;78.00
35240;DHT22;21376;50.954;4.716;2023-03-02T08:56:24;16.00;75.30
35240;DHT22;21376;50.954;4.716;2023-03-02T08:58:53;16.20;75.20
35240;DHT22;21376;50.954;4.716;2023-03-02T09:01:23;15.40;75.80
35240;DHT22;21376;50.954;4.716;2023-03-02T09:03:49;15.60;75.50
35240;DHT22;21376;50.954;4.716;2023-03-02T09:06:18;16.20;74.90
35240;DHT22;21376;50.954;4.716;2023-03-02T09:08:46;16.10;74.30
35240;DHT22;21376;50.954;4.716;2023-03-02T09:11:14;16.40;72.60
35240;DHT22;21376;50.954;4.716;2023-03-02T09:13:39;16.30;74.80
35240;DHT22;21376;50.954;4.716;2023-03-02T09:16:06;15.60;75.10
35240;DHT22;21376;50.954;4.716;2023-03-02T09:18:34;15.40;75.80
35240;DHT22;21376;50.954;4.716;2023-03-02T09:21:03;15.50;76.00
35240;DHT22;21376;50.954;4.716;2023-03-02T09:23:29;15.10;75.50
35240;DHT22;21376;50.954;4.716;2023-03-02T09:25:55;14.90;77.90
35240;DHT22;21376;50.954;4.716;2023-03-02T09:28:21;15.00;75.90
35240;DHT22;21376;50.954;4.716;2023-03-02T09:30:53;15.80;75.80
35240;DHT22;21376;50.954;4.716;2023-03-02T09:33:20;16.30;74.40
35240;DHT22;21376;50.954;4.716;2023-03-02T09:35:46;16.70;73.50
35240;DHT22;21376;50.954;4.716;2023-03-02T09:38:14;16.20;72.70
35240;DHT22;21376;50.954;4.716;2023-03-02T09:49:17;17.50;72.10
35240;DHT22;21376;50.954;4.716;2023-03-02T09:54:16;17.90;68.50
35240;DHT22;21376;50.954;4.716;2023-03-02T09:56:48;17.40;70.20
35240;DHT22;21376;50.954;4.716;2023-03-02T09:59:28;17.60;69.80
35240;DHT22;21376;50.954;4.716;2023-03-02T10:04:58;18.00;68.50
35240;DHT22;21376;50.954;4.716;2023-03-02T10:07:30;18.50;66.30
35240;DHT22;21376;50.954;4.716;2023-03-02T10:10:39;18.80;66.70
35240;DHT22;21376;50.954;4.716;2023-03-02T10:13:31;18.80;65.40
35240;DHT22;21376;50.954;4.716;2023-03-02T10:16:11;18.60;69.30
35240;DHT22;21376;50.954;4.716;2023-03-02T10:18:55;18.00;69.20
35240;DHT22;21376;50.954;4.716;2023-03-02T10:21:43;18.10;66.60
35240;DHT22;21376;50.954;4.716;2023-03-02T10:24:37;18.20;66.00
35240;DHT22;21376;50.954;4.716;2023-03-02T10:27:35;17.60;67.10
35240;DHT22;21376;50.954;4.716;2023-03-02T10:30:15;18.10;66.70
35240;DHT22;21376;50.954;4.716;2023-03-02T10:32:52;17.10;69.40
35240;DHT22;21376;50.954;4.716;2023-03-02T10:35:23;17.90;65.20
35240;DHT22;21376;50.954;4.716;2023-03-02T10:38:15;18.10;65.80
35240;DHT22;21376;50.954;4.716;2023-03-02T10:40:54;18.70;65.00
35240;DHT22;21376;50.954;4.716;2023-03-02T10:43:36;18.70;64.10
35240;DHT22;21376;50.954;4.716;2023-03-02T10:46:07;18.20;63.40
35240;DHT22;21376;50.954;4.716;2023-03-02T10:48:56;18.00;64.90
35240;DHT22;21376;50.954;4.716;2023-03-02T10:51:30;18.20;63.90
35240;DHT22;21376;50.954;4.716;2023-03-02T10:54:13;18.10;65.80
35240;DHT22;21376;50.954;4.716;2023-03-02T10:56:49;18.80;63.20
35240;DHT22;21376;50.954;4.716;2023-03-02T10:59:44;18.80;63.00
35240;DHT22;21376;50.954;4.716;2023-03-02T11:02:15;19.20;61.80
35240;DHT22;21376;50.954;4.716;2023-03-02T11:04:42;19.30;61.90
35240;DHT22;21376;50.954;4.716;2023-03-02T11:07:20;18.90;62.10
35240;DHT22;21376;50.954;4.716;2023-03-02T11:10:06;18.80;61.40
35240;DHT22;21376;50.954;4.716;2023-03-02T11:15:50;19.20;63.20
35240;DHT22;21376;50.954;4.716;2023-03-02T11:21:31;18.60;62.70
35240;DHT22;21376;50.954;4.716;2023-03-02T11:24:21;17.50;66.50
35240;DHT22;21376;50.954;4.716;2023-03-02T11:27:01;18.50;63.60
35240;DHT22;21376;50.954;4.716;2023-03-02T11:30:01;18.60;62.90
35240;DHT22;21376;50.954;4.716;2023-03-02T11:35:35;19.50;62.70
35240;DHT22;21376;50.954;4.716;2023-03-02T11:43:14;19.20;63.40
35240;DHT22;21376;50.954;4.716;2023-03-02T11:45:46;18.90;62.30
35240;DHT22;21376;50.954;4.716;2023-03-02T11:48:32;19.10;62.10
35240;DHT22;21376;50.954;4.716;2023-03-02T11:51:11;18.60;64.80
35240;DHT22;21376;50.954;4.716;2023-03-02T11:54:00;19.30;62.80
35240;DHT22;21376;50.954;4.716;2023-03-02T11:56:30;19.20;64.00
35240;DHT22;21376;50.954;4.716;2023-03-02T11:59:03;19.50;61.60
35240;DHT22;21376;50.954;4.716;2023-03-02T12:01:32;20.10;60.10
35240;DHT22;21376;50.954;4.716;2023-03-02T12:04:48;19.60;60.70
35240;DHT22;21376;50.954;4.716;2023-03-02T12:07:02;19.60;62.10
35240;DHT22;21376;50.954;4.716;2023-03-02T12:09:33;19.50;62.50
35240;DHT22;21376;50.954;4.716;2023-03-02T12:14:48;19.30;62.70
35240;DHT22;21376;50.954;4.716;2023-03-02T12:17:31;19.10;65.10
35240;DHT22;21376;50.954;4.716;2023-03-02T12:22:46;19.00;62.40
35240;DHT22;21376;50.954;4.716;2023-03-02T12:27:47;19.10;63.90
35240;DHT22;21376;50.954;4.716;2023-03-02T12:33:17;18.70;62.90
35240;DHT22;21376;50.954;4.716;2023-03-02T12:35:45;17.90;63.00
35240;DHT22;21376;50.954;4.716;2023-03-02T12:38:32;17.60;66.20
35240;DHT22;21376;50.954;4.716;2023-03-02T12:44:19;17.00;66.30
35240;DHT22;21376;50.954;4.716;2023-03-02T12:46:48;17.10;66.00
35240;DHT22;21376;50.954;4.716;2023-03-02T12:52:35;16.80;66.90
35240;DHT22;21376;50.954;4.716;2023-03-02T12:57:51;16.50;67.10
35240;DHT22;21376;50.954;4.716;2023-03-02T13:00:20;16.60;68.00
35240;DHT22;21376;50.954;4.716;2023-03-02T13:02:50;16.60;68.90
35240;DHT22;21376;50.954;4.716;2023-03-02T13:05:20;16.60;68.20
35240;DHT22;21376;50.954;4.716;2023-03-02T13:07:55;16.30;68.40
35240;DHT22;21376;50.954;4.716;2023-03-02T13:13:10;16.00;70.00
35240;DHT22;21376;50.954;4.716;2023-03-02T13:15:50;15.80;70.20
35240;DHT22;21376;50.954;4.716;2023-03-02T13:18:20;16.10;71.80
35240;DHT22;21376;50.954;4.716;2023-03-02T13:21:09;16.70;68.40
35240;DHT22;21376;50.954;4.716;2023-03-02T13:23:44;16.90;68.90
35240;DHT22;21376;50.954;4.716;2023-03-02T13:26:29;17.00;67.60
35240;DHT22;21376;50.954;4.716;2023-03-02T13:29:06;16.30;68.10
35240;DHT22;21376;50.954;4.716;2023-03-02T13:31:41;15.90;70.50
35240;DHT22;21376;50.954;4.716;2023-03-02T13:34:25;15.60;72.20
35240;DHT22;21376;50.954;4.716;2023-03-02T13:36:52;15.30;71.90
35240;DHT22;21376;50.954;4.716;2023-03-02T13:39:28;14.60;72.90
35240;DHT22;21376;50.954;4.716;2023-03-02T13:42:01;14.00;74.00
35240;DHT22;21376;50.954;4.716;2023-03-02T13:44:31;13.40;77.00
35240;DHT22;21376;50.954;4.716;2023-03-02T13:46:58;12.70;81.30
35240;DHT22;21376;50.954;4.716;2023-03-02T13:49:29;12.50;81.60
35240;DHT22;21376;50.954;4.716;2023-03-02T13:54:43;12.40;81.70
35240;DHT22;21376;50.954;4.716;2023-03-02T13:57:15;12.30;81.00
35240;DHT22;21376;50.954;4.716;2023-03-02T13:59:41;12.20;82.40
35240;DHT22;21376;50.954;4.716;2023-03-02T14:02:33;12.20;82.80
35240;DHT22;21376;50.954;4.716;2023-03-02T14:04:59;12.20;82.30
35240;DHT22;21376;50.954;4.716;2023-03-02T14:07:31;12.20;82.60
35240;DHT22;21376;50.954;4.716;2023-03-02T14:09:56;12.20;82.30
35240;DHT22;21376;50.954;4.716;2023-03-02T14:12:29;12.10;82.40
35240;DHT22;21376;50.954;4.716;2023-03-02T14:14:59;12.00;84.00
35240;DHT22;21376;50.954;4.716;2023-03-02T14:17:27;12.00;84.60
35240;DHT22;21376;50.954;4.716;2023-03-02T14:19:53;12.00;83.30
35240;DHT22;21376;50.954;4.716;2023-03-02T14:22:22;11.90;84.20
35240;DHT22;21376;50.954;4.716;2023-03-02T14:24:48;11.90;84.30
35240;DHT22;21376;50.954;4.716;2023-03-02T14:27:16;11.90;85.20
35240;DHT22;21376;50.954;4.716;2023-03-02T14:29:46;11.90;85.60
35240;DHT22;21376;50.954;4.716;2023-03-02T14:32:14;11.90;85.00
35240;DHT22;21376;50.954;4.716;2023-03-02T14:34:40;11.90;85.40
35240;DHT22;21376;50.954;4.716;2023-03-02T14:37:13;11.80;84.60
35240;DHT22;21376;50.954;4.716;2023-03-02T14:39:46;11.80;86.70
35240;DHT22;21376;50.954;4.716;2023-03-02T14:42:20;11.80;88.00
35240;DHT22;21376;50.954;4.716;2023-03-02T14:44:50;11.80;86.80
35240;DHT22;21376;50.954;4.716;2023-03-02T14:47:17;11.80;87.60
35240;DHT22;21376;50.954;4.716;2023-03-02T14:49:44;11.70;86.60
35240;DHT22;21376;50.954;4.716;2023-03-02T14:52:26;11.40;86.60
35240;DHT22;21376;50.954;4.716;2023-03-02T14:54:58;11.20;89.50
35240;DHT22;21376;50.954;4.716;2023-03-02T14:57:27;11.30;89.40
35240;DHT22;21376;50.954;4.716;2023-03-02T14:59:54;11.40;88.10
35240;DHT22;21376;50.954;4.716;2023-03-02T15:02:22;11.40;87.80
35240;DHT22;21376;50.954;4.716;2023-03-02T15:04:48;11.30;88.70
35240;DHT22;21376;50.954;4.716;2023-03-02T15:07:17;11.20;89.30
35240;DHT22;21376;50.954;4.716;2023-03-02T15:09:46;11.20;89.00
35240;DHT22;21376;50.954;4.716;2023-03-02T15:12:15;11.30;89.30
35240;DHT22;21376;50.954;4.716;2023-03-02T15:14:45;11.30;89.30
35240;DHT22;21376;50.954;4.716;2023-03-02T15:17:12;11.20;89.10
35240;DHT22;21376;50.954;4.716;2023-03-02T15:19:39;11.20;90.10
35240;DHT22;21376;50.954;4.716;2023-03-02T15:22:05;11.20;90.20
35240;DHT22;21376;50.954;4.716;2023-03-02T15:24:34;11.10;90.50
35240;DHT22;21376;50.954;4.716;2023-03-02T15:27:03;11.10;90.50
35240;DHT22;21376;50.954;4.716;2023-03-02T15:29:29;10.90;90.40
35240;DHT22;21376;50.954;4.716;2023-03-02T15:31:58;10.80;91.30
35240;DHT22;21376;50.954;4.716;2023-03-02T15:34:26;10.80;91.40
35240;DHT22;21376;50.954;4.716;2023-03-02T15:36:52;10.90;91.70
35240;DHT22;21376;50.954;4.716;2023-03-02T15:39:18;10.70;92.40
35240;DHT22;21376;50.954;4.716;2023-03-02T15:41:44;10.80;92.20
35240;DHT22;21376;50.954;4.716;2023-03-02T15:44:17;10.70;92.10
35240;DHT22;21376;50.954;4.716;2023-03-02T15:46:56;10.80;92.00
35240;DHT22;21376;50.954;4.716;2023-03-02T15:49:24;10.80;92.50
35240;DHT22;21376;50.954;4.716;2023-03-02T15:51:56;10.70;92.20
35240;DHT22;21376;50.954;4.716;2023-03-02T15:54:25;10.60;92.00
35240;DHT22;21376;50.954;4.716;2023-03-02T15:56:51;10.60;92.30
35240;DHT22;21376;50.954;4.716;2023-03-02T15:59:23;10.50;93.10
35240;DHT22;21376;50.954;4.716;2023-03-02T16:01:50;10.30;93.10
35240;DHT22;21376;50.954;4.716;2023-03-02T16:04:16;10.40;93.80
35240;DHT22;21376;50.954;4.716;2023-03-02T16:06:45;10.30;93.30
35240;DHT22;21376;50.954;4.716;2023-03-02T16:09:14;10.20;93.30
35240;DHT22;21376;50.954;4.716;2023-03-02T16:11:40;10.20;93.40
35240;DHT22;21376;50.954;4.716;2023-03-02T16:14:09;10.10;94.10
35240;DHT22;21376;50.954;4.716;2023-03-02T16:16:35;10.10;93.80
35240;DHT22;21376;50.954;4.716;2023-03-02T16:19:01;10.00;94.30
35240;DHT22;21376;50.954;4.716;2023-03-02T16:21:27;10.00;94.80
35240;DHT22;21376;50.954;4.716;2023-03-02T16:23:53;10.00;94.30
35240;DHT22;21376;50.954;4.716;2023-03-02T16:26:21;10.10;94.10
35240;DHT22;21376;50.954;4.716;2023-03-02T16:28:50;9.80;94.20
35240;DHT22;21376;50.954;4.716;2023-03-02T16:31:19;9.70;94.50
35240;DHT22;21376;50.954;4.716;2023-03-02T16:33:49;9.60;94.30
35240;DHT22;21376;50.954;4.716;2023-03-02T16:36:16;9.60;94.40
35240;DHT22;21376;50.954;4.716;2023-03-02T16:38:42;9.60;94.90
35240;DHT22;21376;50.954;4.716;2023-03-02T16:41:14;9.60;94.80
35240;DHT22;21376;50.954;4.716;2023-03-02T16:43:55;9.50;94.50
35240;DHT22;21376;50.954;4.716;2023-03-02T16:46:23;9.50;94.80
35240;DHT22;21376;50.954;4.716;2023-03-02T16:48:50;9.50;95.00
35240;DHT22;21376;50.954;4.716;2023-03-02T16:51:17;9.30;95.30
35240;DHT22;21376;50.954;4.716;2023-03-02T16:53:44;9.30;95.30
35240;DHT22;21376;50.954;4.716;2023-03-02T16:56:13;9.40;95.30
35240;DHT22;21376;50.954;4.716;2023-03-02T16:58:40;9.40;95.00
35240;DHT22;21376;50.954;4.716;2023-03-02T17:01:15;9.20;95.30